N484MF LLHZ-LLHZ

Flight info

Callsign N484MF
Flight time N/A
Altitude 800
Route CVFR
Aircraft DA40/L-SDE/C

Departure

Time 2026-04-29 19:34
Airport Herzliya Airport (LLHZ)

Arrival

Time N/A
Airport Herzliya Airport (LLHZ)
Time Latitude Longitude Altitude Speed Heading
2026-04-29 19:28 32.17932 34.83607 111 ft 0 kts 20°
2026-04-29 19:32 32.17940 34.83616 111 ft 7 kts 70°
2026-04-29 19:32 32.17926 34.83686 115 ft 11 kts 109°
2026-04-29 19:32 32.17896 34.83795 119 ft 17 kts 109°
2026-04-29 19:33 32.17881 34.83852 122 ft 2 kts 68°
2026-04-29 19:33 32.17928 34.83853 121 ft 4 kts 213°
2026-04-29 19:33 32.17928 34.83810 122 ft 25 kts 289°
2026-04-29 19:33 32.18088 34.83276 158 ft 95 kts 294°
2026-04-29 19:34 32.18443 34.82691 402 ft 88 kts 351°
2026-04-29 19:34 32.19057 34.82870 573 ft 91 kts 17°
2026-04-29 19:34 32.19323 34.83485 806 ft 114 kts 106°
2026-04-29 19:34 32.18945 34.84408 696 ft 136 kts 114°
2026-04-29 19:35 32.18373 34.85130 840 ft 115 kts 187°
2026-04-29 19:35 32.17884 34.84513 472 ft 105 kts 252°
2026-04-29 19:35 32.17934 34.83788 125 ft 78 kts 293°
2026-04-29 19:35 32.18087 34.83291 99 ft 70 kts 290°
2026-04-29 19:36 32.18363 34.82717 393 ft 86 kts 346°
2026-04-29 19:36 32.19021 34.82848 644 ft 101 kts 26°
2026-04-29 19:36 32.19201 34.83618 857 ft 122 kts 105°
2026-04-29 19:36 32.18914 34.84480 819 ft 103 kts 109°
2026-04-29 19:37 32.18580 34.85261 766 ft 108 kts 134°
2026-04-29 19:37 32.18159 34.85363 730 ft 88 kts 197°
2026-04-29 19:37 32.17586 34.84784 536 ft 79 kts 291°
2026-04-29 19:37 32.17805 34.84219 264 ft 75 kts 290°
2026-04-29 19:38 32.17974 34.83652 115 ft 61 kts 294°
2026-04-29 19:38 32.18125 34.83180 124 ft 83 kts 294°
2026-04-29 19:38 32.18414 34.82564 412 ft 95 kts 352°
2026-04-29 19:38 32.19094 34.82843 597 ft 107 kts 38°
2026-04-29 19:39 32.19063 34.83746 726 ft 125 kts 106°
2026-04-29 19:39 32.18720 34.84697 814 ft 130 kts 110°
2026-04-29 19:39 32.18114 34.85396 828 ft 139 kts 188°
2026-04-29 19:39 32.17601 34.84862 527 ft 91 kts 288°
2026-04-29 19:40 32.17827 34.84133 220 ft 90 kts 291°
2026-04-29 19:40 32.18000 34.83544 108 ft 60 kts 297°
2026-04-29 19:40 32.18212 34.82938 206 ft 101 kts 301°
2026-04-29 19:40 32.18824 34.82756 491 ft 104 kts
2026-04-29 19:41 32.19338 34.83227 752 ft 112 kts 97°
2026-04-29 19:41 32.19087 34.84163 824 ft 129 kts 108°
2026-04-29 19:41 32.18666 34.85140 801 ft 138 kts 117°
2026-04-29 19:41 32.17829 34.85299 668 ft 133 kts 198°
2026-04-29 19:42 32.17696 34.84579 391 ft 101 kts 293°
2026-04-29 19:42 32.17848 34.84067 193 ft 89 kts 293°
2026-04-29 19:42 32.18066 34.83352 109 ft 74 kts 299°
2026-04-29 19:42 32.18355 34.82725 373 ft 92 kts 334°
2026-04-29 19:43 32.19019 34.82858 641 ft 105 kts 18°
2026-04-29 19:43 32.19395 34.83483 876 ft 120 kts 100°
2026-04-29 19:43 32.18982 34.84458 661 ft 146 kts 121°
2026-04-29 19:43 32.18446 34.85338 720 ft 97 kts 166°
2026-04-29 19:44 32.17789 34.85241 584 ft 92 kts 206°
2026-04-29 19:44 32.17691 34.84595 375 ft 84 kts 295°
2026-04-29 19:44 32.17888 34.83939 152 ft 82 kts 292°
2026-04-29 19:44 32.18046 34.83418 104 ft 62 kts 289°
2026-04-29 19:45 32.18266 34.82768 314 ft 90 kts 317°
2026-04-29 19:45 32.18902 34.82781 619 ft 99 kts 18°
2026-04-29 19:45 32.19267 34.83431 838 ft 118 kts 96°
2026-04-29 19:45 32.18957 34.84421 786 ft 135 kts 113°
2026-04-29 19:46 32.18425 34.85330 793 ft 136 kts 169°
2026-04-29 19:46 32.17620 34.85075 521 ft 97 kts 249°
2026-04-29 19:46 32.17739 34.84431 310 ft 77 kts 292°
2026-04-29 19:46 32.17908 34.83872 137 ft 64 kts 292°
2026-04-29 19:47 32.18043 34.83408 107 ft 79 kts 291°
2026-04-29 19:47 32.18277 34.82701 360 ft 95 kts 307°
2026-04-29 19:47 32.18859 34.82653 722 ft 101 kts 22°
2026-04-29 19:47 32.19230 34.83402 817 ft 125 kts 90°
2026-04-29 19:48 32.18918 34.84309 739 ft 107 kts 148°
2026-04-29 19:48 32.18431 34.84252 426 ft 110 kts 199°
2026-04-29 19:48 32.17966 34.83668 116 ft 68 kts 292°
2026-04-29 19:48 32.18143 34.83124 199 ft 89 kts 300°
2026-04-29 19:49 32.18581 34.82666 479 ft 99 kts 14°
2026-04-29 19:49 32.19177 34.83148 757 ft 106 kts 59°
2026-04-29 19:49 32.19066 34.84096 711 ft 132 kts 112°
2026-04-29 19:49 32.18627 34.85086 645 ft 143 kts 115°
2026-04-29 19:50 32.17937 34.85314 626 ft 122 kts 198°
2026-04-29 19:50 32.17632 34.84745 480 ft 81 kts 297°
2026-04-29 19:50 32.17830 34.84138 217 ft 79 kts 292°
2026-04-29 19:50 32.17997 34.83568 111 ft 61 kts 294°
2026-04-29 19:51 32.18147 34.83068 178 ft 85 kts 293°